Time;durP1;ratioP1;P1;durP2;ratioP2;P2;SDS_P1;SDS_P2;PMS_P1;PMS_P2;Temp;Humidity;BMP_temperature;BMP_pressure;BME280_temperature;BME280_humidity;BME280_pressure;Samples;Min_cycle;Max_cycle;Signal;HPM_P1;HPM_P2
2023/08/23 00:01:40;;;;;;;9.02;4.43;;;21.30;96.00;;;;;;6271769;22;20426;-74
2023/08/23 00:04:27;;;;;;;7.32;4.10;;;21.30;96.10;;;;;;6271356;22;20552;-73
2023/08/23 00:07:12;;;;;;;5.40;3.45;;;21.30;96.20;;;;;;6271591;22;20394;-74
2023/08/23 00:09:58;;;;;;;6.65;3.85;;;21.30;96.20;;;;;;6270821;22;20131;-73
2023/08/23 00:12:44;;;;;;;7.05;3.80;;;21.20;96.50;;;;;;6271909;22;20011;-73
2023/08/23 00:15:30;;;;;;;4.80;3.53;;;21.20;96.40;;;;;;6271859;22;20008;-73
2023/08/23 00:18:16;;;;;;;7.38;4.22;;;21.20;96.50;;;;;;6246993;22;20050;-73
2023/08/23 00:21:02;;;;;;;6.65;4.40;;;21.20;96.50;;;;;;6271655;22;20011;-73
2023/08/23 00:23:48;;;;;;;5.78;3.40;;;21.20;96.60;;;;;;6269433;22;20008;-73
2023/08/23 00:26:34;;;;;;;6.63;4.28;;;21.10;96.60;;;;;;6272014;22;20015;-73
2023/08/23 00:29:20;;;;;;;9.32;4.53;;;21.10;96.70;;;;;;6270549;22;20020;-73
2023/08/23 00:32:06;;;;;;;6.63;3.92;;;21.10;96.80;;;;;;6272204;22;20008;-73
2023/08/23 00:34:52;;;;;;;6.43;4.10;;;21.10;96.80;;;;;;6270671;22;20087;-73
2023/08/23 00:37:38;;;;;;;7.60;3.83;;;21.10;96.90;;;;;;6247721;22;20020;-73
2023/08/23 00:40:24;;;;;;;6.03;3.58;;;21.10;97.00;;;;;;6271654;22;20038;-73
2023/08/23 00:43:11;;;;;;;8.32;4.43;;;21.00;97.00;;;;;;6270841;22;20016;-73
2023/08/23 00:45:57;;;;;;;7.47;4.05;;;21.00;97.10;;;;;;6272540;22;20042;-73
2023/08/23 00:48:44;;;;;;;7.45;4.53;;;21.00;97.10;;;;;;6270549;22;20077;-72
2023/08/23 00:51:31;;;;;;;5.20;3.67;;;21.00;97.10;;;;;;6271280;22;20039;-71
2023/08/23 00:54:17;;;;;;;7.75;3.58;;;21.00;97.10;;;;;;6268942;22;20011;-71
2023/08/23 00:57:04;;;;;;;6.30;3.50;;;21.00;97.20;;;;;;6271682;22;20073;-72
2023/08/23 00:59:50;;;;;;;9.48;3.55;;;20.90;97.20;;;;;;6270979;22;20012;-71
2023/08/23 01:02:36;;;;;;;8.98;3.78;;;20.90;97.30;;;;;;6273509;22;20433;-72
2023/08/23 01:05:40;;;;;;;4.55;3.22;;;20.80;97.50;;;;;;6271673;22;20031;-72
2023/08/23 01:08:38;;;;;;;5.95;3.40;;;20.80;97.40;;;;;;6273267;22;20046;-71
2023/08/23 01:11:37;;;;;;;6.30;3.60;;;20.90;97.30;;;;;;6271307;22;20016;-72
2023/08/23 01:14:23;;;;;;;7.70;3.45;;;20.80;97.40;;;;;;6271300;22;20070;-72
2023/08/23 01:17:10;;;;;;;5.50;3.80;;;20.80;97.50;;;;;;6273785;22;20012;-72
2023/08/23 01:19:57;;;;;;;5.75;3.55;;;20.80;97.50;;;;;;6272128;22;20012;-72
2023/08/23 01:22:54;;;;;;;5.60;3.85;;;20.80;97.60;;;;;;6273662;22;20008;-71
2023/08/23 01:25:46;;;;;;;7.32;3.40;;;20.80;97.60;;;;;;6271441;22;20086;-71
2023/08/23 01:28:32;;;;;;;5.45;3.90;;;20.80;97.60;;;;;;6273409;22;20011;-71
2023/08/23 01:31:22;;;;;;;8.63;4.10;;;20.80;97.60;;;;;;6273684;22;20008;-71
2023/08/23 01:34:25;;;;;;;6.95;3.47;;;20.80;97.60;;;;;;6269886;22;20034;-71
2023/08/23 01:37:12;;;;;;;4.68;3.63;;;20.80;97.60;;;;;;6270972;22;20381;-72
2023/08/23 01:40:00;;;;;;;9.23;4.10;;;20.80;97.70;;;;;;6272040;22;20008;-71
2023/08/23 01:42:47;;;;;;;5.95;3.60;;;20.80;97.70;;;;;;6273517;22;20019;-71
2023/08/23 01:45:33;;;;;;;7.53;3.67;;;20.70;97.70;;;;;;6272305;22;20090;-72
2023/08/23 01:48:19;;;;;;;8.43;3.47;;;20.70;97.80;;;;;;6272788;22;20018;-72
2023/08/23 01:51:06;;;;;;;9.60;3.72;;;20.70;97.90;;;;;;6271916;22;20027;-71
2023/08/23 01:53:52;;;;;;;8.07;4.18;;;20.70;97.90;;;;;;6272726;22;20060;-73
2023/08/23 01:56:38;;;;;;;6.40;3.63;;;20.70;98.00;;;;;;6271654;22;20445;-74
2023/08/23 01:59:24;;;;;;;5.88;3.63;;;20.70;98.00;;;;;;6271802;22;20124;-73
2023/08/23 02:02:10;;;;;;;14.25;4.38;;;20.70;98.10;;;;;;6273028;22;20008;-73
2023/08/23 02:04:56;;;;;;;5.78;3.40;;;20.70;98.10;;;;;;6271558;22;20400;-74
2023/08/23 02:07:41;;;;;;;5.05;3.13;;;20.70;98.10;;;;;;6273106;22;20014;-74
2023/08/23 02:10:27;;;;;;;7.55;4.05;;;20.70;98.10;;;;;;6271908;22;20023;-72
2023/08/23 02:13:13;;;;;;;5.53;3.70;;;20.60;98.10;;;;;;6272965;22;20022;-72
2023/08/23 02:15:59;;;;;;;7.30;3.58;;;20.60;98.10;;;;;;6271834;22;20040;-71
2023/08/23 02:18:45;;;;;;;5.78;4.18;;;20.60;98.10;;;;;;6270836;22;20012;-71
2023/08/23 02:21:31;;;;;;;6.38;4.05;;;20.60;98.10;;;;;;6270919;22;20011;-71
2023/08/23 02:24:17;;;;;;;7.00;4.18;;;20.60;98.20;;;;;;6270151;22;20007;-73
2023/08/23 02:27:03;;;;;;;6.30;4.47;;;20.50;98.20;;;;;;6273241;22;20011;-74
2023/08/23 02:29:49;;;;;;;6.28;4.30;;;20.50;98.30;;;;;;6271523;22;20050;-73
2023/08/23 02:32:35;;;;;;;5.95;3.70;;;20.50;98.40;;;;;;6269521;22;20010;-73
2023/08/23 02:35:21;;;;;;;6.20;3.55;;;20.40;98.40;;;;;;6271852;22;20007;-73
2023/08/23 02:38:08;;;;;;;7.07;3.97;;;20.40;98.50;;;;;;6272043;22;20039;-73
2023/08/23 02:40:57;;;;;;;7.28;3.70;;;20.40;98.50;;;;;;6269640;22;20008;-73
2023/08/23 02:43:42;;;;;;;7.53;3.80;;;20.30;98.50;;;;;;6271232;22;20396;-73
2023/08/23 02:46:28;;;;;;;6.82;4.00;;;20.30;98.50;;;;;;6271799;22;20461;-73
2023/08/23 02:49:14;;;;;;;11.40;4.28;;;20.30;98.70;;;;;;6269697;22;20015;-74
2023/08/23 02:52:00;;;;;;;6.07;4.03;;;20.30;98.70;;;;;;6271458;22;20310;-74
2023/08/23 02:54:46;;;;;;;7.15;4.20;;;20.30;98.80;;;;;;6269279;22;20008;-73
2023/08/23 02:57:32;;;;;;;7.55;4.47;;;20.30;98.90;;;;;;6271826;22;20008;-74
2023/08/23 03:00:18;;;;;;;5.45;4.03;;;20.30;98.90;;;;;;6271442;22;20042;-73
2023/08/23 03:03:04;;;;;;;9.07;5.15;;;20.30;98.90;;;;;;6271231;22;20061;-73
2023/08/23 03:05:57;;;;;;;7.15;4.30;;;20.20;98.90;;;;;;6270539;22;20102;-73
2023/08/23 03:08:43;;;;;;;7.03;4.03;;;20.20;99.00;;;;;;6271724;22;20285;-73
2023/08/23 03:11:29;;;;;;;6.00;4.22;;;20.20;99.00;;;;;;6270766;22;20042;-73
2023/08/23 03:14:15;;;;;;;9.77;4.93;;;20.20;99.10;;;;;;6271771;22;20094;-73
2023/08/23 03:17:01;;;;;;;6.47;4.32;;;20.20;99.10;;;;;;6275863;22;20429;-72
2023/08/23 03:19:47;;;;;;;11.13;4.55;;;20.20;99.20;;;;;;6273867;22;20079;-73
2023/08/23 03:22:33;;;;;;;7.13;4.07;;;20.20;99.30;;;;;;6271604;22;20011;-73
2023/08/23 03:25:19;;;;;;;7.15;4.53;;;20.20;99.20;;;;;;6271703;22;20409;-73
2023/08/23 03:28:05;;;;;;;7.93;4.57;;;20.20;99.20;;;;;;6272080;22;20126;-73
2023/08/23 03:30:51;;;;;;;10.88;4.95;;;20.10;99.40;;;;;;6270188;22;20022;-73
2023/08/23 03:33:37;;;;;;;8.18;4.80;;;20.10;99.40;;;;;;6270489;22;20008;-73
2023/08/23 03:36:23;;;;;;;7.72;4.65;;;20.10;99.50;;;;;;6271114;22;20016;-71
2023/08/23 03:39:09;;;;;;;6.93;4.35;;;20.10;99.50;;;;;;6270861;22;20402;-71
2023/08/23 03:41:55;;;;;;;6.70;4.72;;;20.10;99.50;;;;;;6269857;22;20030;-75
2023/08/23 03:44:41;;;;;;;8.75;4.07;;;20.00;99.60;;;;;;6270633;22;20124;-77
2023/08/23 03:47:27;;;;;;;6.65;4.38;;;20.00;99.70;;;;;;6272721;22;20091;-70
2023/08/23 04:03:06;;;;;;;9.15;4.55;;;19.90;99.80;;;;;;6236657;22;20016;-72
2023/08/23 04:05:52;;;;;;;8.68;4.50;;;19.90;99.90;;;;;;6269199;22;20027;-74
2023/08/23 04:08:38;;;;;;;8.35;4.20;;;19.90;99.90;;;;;;6270471;22;20011;-74
2023/08/23 04:11:24;;;;;;;7.25;4.95;;;19.90;99.90;;;;;;6270851;22;20012;-74
2023/08/23 04:14:10;;;;;;;8.05;5.65;;;19.90;99.90;;;;;;6270748;22;20429;-74
2023/08/23 04:16:56;;;;;;;6.93;5.15;;;19.90;99.90;;;;;;6271955;22;20012;-74
2023/08/23 04:19:42;;;;;;;6.53;4.22;;;19.90;99.90;;;;;;6271327;22;20012;-73
2023/08/23 04:22:28;;;;;;;7.97;5.07;;;19.90;99.90;;;;;;6269962;22;20165;-73
2023/08/23 04:25:14;;;;;;;6.95;4.78;;;19.90;99.90;;;;;;6272043;22;20422;-73
2023/08/23 04:28:00;;;;;;;8.13;4.90;;;19.90;99.90;;;;;;6247915;22;20442;-75
2023/08/23 04:30:46;;;;;;;7.47;4.65;;;19.90;99.90;;;;;;6249412;22;20070;-75
2023/08/23 04:33:34;;;;;;;6.40;4.45;;;20.00;99.90;;;;;;6271302;22;20018;-74
2023/08/23 04:36:20;;;;;;;6.57;4.47;;;20.00;99.90;;;;;;6272286;22;20015;-72
2023/08/23 04:39:06;;;;;;;6.97;4.53;;;20.00;99.90;;;;;;6274054;22;20044;-73
2023/08/23 04:41:52;;;;;;;8.90;5.18;;;20.00;99.90;;;;;;6273482;22;20050;-73
2023/08/23 04:44:38;;;;;;;8.80;4.88;;;20.00;99.90;;;;;;6272958;22;20697;-72
2023/08/23 04:47:24;;;;;;;7.20;4.82;;;20.00;99.90;;;;;;6272333;22;20087;-71
2023/08/23 04:50:10;;;;;;;7.22;4.20;;;20.00;99.90;;;;;;6271944;22;20107;-74
2023/08/23 04:52:56;;;;;;;6.97;4.25;;;20.10;99.90;;;;;;6274213;22;20038;-75
2023/08/23 04:55:42;;;;;;;6.13;4.30;;;20.10;99.90;;;;;;6269975;22;20026;-77
2023/08/23 04:58:31;;;;;;;8.68;4.57;;;20.10;99.90;;;;;;6272134;22;20046;-73
2023/08/23 05:01:17;;;;;;;7.97;4.20;;;20.10;99.90;;;;;;6271965;22;20019;-75
2023/08/23 05:04:03;;;;;;;8.38;4.80;;;20.20;99.90;;;;;;6270729;22;20030;-73
2023/08/23 05:06:49;;;;;;;5.80;4.15;;;20.20;99.90;;;;;;6271583;22;20012;-74
2023/08/23 05:09:35;;;;;;;7.07;4.40;;;20.20;99.90;;;;;;6270820;22;20449;-74
2023/08/23 05:12:21;;;;;;;8.27;4.63;;;20.20;99.90;;;;;;6273262;22;20003;-74
2023/08/23 05:15:08;;;;;;;9.65;4.47;;;20.20;99.90;;;;;;6270643;22;20095;-74
2023/08/23 05:17:53;;;;;;;12.35;4.30;;;20.30;99.90;;;;;;6270611;22;20008;-75
2023/08/23 05:20:39;;;;;;;8.40;4.88;;;20.20;99.90;;;;;;6271900;22;20015;-75
2023/08/23 05:23:26;;;;;;;6.63;3.92;;;20.30;99.90;;;;;;6273318;22;20406;-74
2023/08/23 05:26:11;;;;;;;10.00;4.70;;;20.30;99.90;;;;;;6270411;22;20008;-78
2023/08/23 05:28:57;;;;;;;7.47;4.47;;;20.30;99.90;;;;;;6270284;22;20020;-78
2023/08/23 05:31:43;;;;;;;9.07;5.28;;;20.40;99.90;;;;;;6270763;22;20019;-75
2023/08/23 05:34:29;;;;;;;7.80;4.28;;;20.40;99.90;;;;;;6273054;22;20003;-75
2023/08/23 05:37:15;;;;;;;5.68;3.85;;;20.40;99.90;;;;;;6273299;22;20015;-70
2023/08/23 05:40:01;;;;;;;8.88;4.57;;;20.40;99.90;;;;;;6268563;22;20014;-69
2023/08/23 05:42:47;;;;;;;9.52;4.80;;;20.50;99.90;;;;;;6272217;22;20466;-71
2023/08/23 05:45:33;;;;;;;7.95;4.65;;;20.50;99.90;;;;;;6271784;22;20004;-70
2023/08/23 05:48:19;;;;;;;6.97;4.18;;;20.50;99.80;;;;;;6271576;22;20008;-70
2023/08/23 05:51:05;;;;;;;12.57;4.82;;;20.50;99.80;;;;;;6267833;22;20035;-71
2023/08/23 05:53:51;;;;;;;6.88;4.40;;;20.60;99.80;;;;;;6271952;22;20015;-71
2023/08/23 05:56:37;;;;;;;8.98;4.28;;;20.60;99.80;;;;;;6270590;22;20099;-68
2023/08/23 05:59:23;;;;;;;7.57;4.38;;;20.60;99.80;;;;;;6271014;22;20016;-71
2023/08/23 06:02:09;;;;;;;9.82;4.60;;;20.60;99.80;;;;;;6272007;22;20061;-69
2023/08/23 06:04:55;;;;;;;6.90;4.18;;;20.70;99.80;;;;;;6271793;22;20095;-79
2023/08/23 06:07:41;;;;;;;7.05;4.35;;;20.70;99.70;;;;;;6272550;22;20007;-76
2023/08/23 06:10:27;;;;;;;6.68;4.45;;;20.70;99.70;;;;;;6269291;22;20073;-77
2023/08/23 06:13:13;;;;;;;7.43;5.00;;;20.80;99.70;;;;;;6247222;22;20015;-77
2023/08/23 06:16:00;;;;;;;6.47;4.07;;;20.80;99.70;;;;;;6271770;22;20020;-77
2023/08/23 06:18:46;;;;;;;8.05;3.88;;;20.90;99.70;;;;;;6271656;22;20016;-76
2023/08/23 06:21:32;;;;;;;6.57;4.60;;;20.90;99.70;;;;;;6271260;22;20003;-76
2023/08/23 06:24:18;;;;;;;6.45;3.60;;;20.90;99.70;;;;;;6269627;22;20016;-77
2023/08/23 06:27:04;;;;;;;6.28;4.28;;;21.00;99.70;;;;;;6271719;22;20157;-76
2023/08/23 06:29:50;;;;;;;6.00;3.95;;;21.00;99.60;;;;;;6271866;22;20584;-77
2023/08/23 06:32:36;;;;;;;6.90;3.75;;;21.10;99.60;;;;;;6275459;22;20418;-77
2023/08/23 06:35:22;;;;;;;7.10;3.78;;;21.20;99.50;;;;;;6272661;22;20337;-78
2023/08/23 06:38:08;;;;;;;12.13;4.90;;;21.20;99.40;;;;;;6274475;22;20015;-76
2023/08/23 06:40:54;;;;;;;7.07;4.30;;;21.30;99.40;;;;;;6271324;22;20007;-76
2023/08/23 06:43:40;;;;;;;7.93;3.58;;;21.30;99.30;;;;;;6269964;22;20038;-76
2023/08/23 06:46:27;;;;;;;5.80;4.15;;;21.40;99.20;;;;;;6271647;22;20444;-77
2023/08/23 06:49:13;;;;;;;7.40;3.60;;;21.50;99.30;;;;;;6269432;22;20015;-77
2023/08/23 06:51:59;;;;;;;7.72;3.58;;;21.50;99.20;;;;;;6271635;22;20078;-77
2023/08/23 06:54:45;;;;;;;5.13;3.58;;;21.50;99.10;;;;;;6266939;22;20012;-77
2023/08/23 06:57:31;;;;;;;5.53;3.60;;;21.60;99.10;;;;;;6270348;22;20050;-78
2023/08/23 07:00:17;;;;;;;6.07;4.25;;;21.70;99.00;;;;;;6271179;22;20400;-78
2023/08/23 07:03:03;;;;;;;9.43;3.28;;;21.70;99.00;;;;;;6271743;22;20441;-77
2023/08/23 07:05:49;;;;;;;6.93;3.50;;;21.80;98.90;;;;;;6269535;22;20620;-77
2023/08/23 07:08:35;;;;;;;10.27;4.25;;;21.80;98.70;;;;;;6271198;22;20073;-77
2023/08/23 07:11:21;;;;;;;6.85;3.63;;;21.90;98.70;;;;;;6271479;22;20094;-78
2023/08/23 07:14:08;;;;;;;7.65;4.18;;;21.90;98.70;;;;;;6271263;22;20180;-78
2023/08/23 07:16:54;;;;;;;5.65;3.63;;;22.00;98.50;;;;;;6270918;22;20038;-76
2023/08/23 07:19:40;;;;;;;4.82;3.20;;;22.10;98.50;;;;;;6270037;22;20015;-79
2023/08/23 07:22:26;;;;;;;6.88;3.42;;;22.10;98.40;;;;;;6270865;22;20008;-79
2023/08/23 07:25:12;;;;;;;4.80;3.33;;;22.20;98.30;;;;;;6269861;22;20019;-79
2023/08/23 07:27:58;;;;;;;6.20;3.40;;;22.20;98.10;;;;;;6271891;22;20054;-78
2023/08/23 07:30:46;;;;;;;6.82;3.60;;;22.30;97.90;;;;;;6267741;22;20057;-77
2023/08/23 07:33:32;;;;;;;3.80;2.88;;;22.50;97.80;;;;;;6270864;22;20027;-78
2023/08/23 07:36:18;;;;;;;4.82;3.17;;;22.50;97.60;;;;;;6270682;22;20091;-78
2023/08/23 07:39:04;;;;;;;5.03;3.30;;;22.60;97.40;;;;;;6271172;22;20011;-78
2023/08/23 07:41:49;;;;;;;9.98;4.13;;;22.60;97.20;;;;;;6270056;22;20003;-78
2023/08/23 07:44:36;;;;;;;7.05;3.30;;;22.70;96.80;;;;;;6270638;22;20062;-78
2023/08/23 07:47:22;;;;;;;6.72;2.72;;;22.70;96.60;;;;;;6271302;22;20007;-78
2023/08/23 07:50:08;;;;;;;7.28;3.25;;;22.80;96.30;;;;;;6269825;22;20024;-77
2023/08/23 07:52:54;;;;;;;7.47;3.38;;;22.90;96.10;;;;;;6270479;22;20008;-78
2023/08/23 07:55:40;;;;;;;4.13;2.40;;;22.90;96.10;;;;;;6269394;22;20507;-78
2023/08/23 07:58:26;;;;;;;6.43;2.65;;;23.00;96.00;;;;;;6270509;22;20318;-78
2023/08/23 08:01:12;;;;;;;3.80;2.22;;;23.10;95.70;;;;;;6269767;22;20011;-79
2023/08/23 08:03:58;;;;;;;4.90;2.10;;;23.20;95.30;;;;;;6271478;22;20445;-79
2023/08/23 08:06:44;;;;;;;6.25;2.88;;;23.20;95.20;;;;;;6271867;22;20507;-77
2023/08/23 08:09:31;;;;;;;7.15;3.05;;;23.30;95.10;;;;;;6272016;22;20015;-79
2023/08/23 08:12:17;;;;;;;3.67;2.40;;;23.40;95.00;;;;;;6249143;22;20699;-79
2023/08/23 08:15:06;;;;;;;3.90;2.20;;;23.40;94.80;;;;;;6270319;22;20007;-78
2023/08/23 08:17:52;;;;;;;6.55;3.05;;;23.50;94.70;;;;;;6273028;22;20008;-78
2023/08/23 08:20:38;;;;;;;7.32;2.47;;;23.50;94.50;;;;;;6271983;22;20116;-81
2023/08/23 08:23:25;;;;;;;3.55;2.10;;;23.60;94.30;;;;;;6271214;22;20011;-78
2023/08/23 08:26:13;;;;;;;2.78;1.98;;;23.60;94.10;;;;;;6272160;22;20380;-78
2023/08/23 08:28:59;;;;;;;3.30;2.28;;;23.70;94.10;;;;;;6272458;22;20337;-78
2023/08/23 08:31:45;;;;;;;3.20;2.20;;;23.80;93.90;;;;;;6272685;22;20011;-78
2023/08/23 08:34:30;;;;;;;3.33;2.03;;;23.80;93.90;;;;;;6272852;22;20004;-78
2023/08/23 08:37:18;;;;;;;5.15;2.33;;;23.80;93.80;;;;;;6273786;22;20324;-77
2023/08/23 08:40:05;;;;;;;3.60;2.20;;;23.90;93.80;;;;;;6272476;22;20007;-78
2023/08/23 08:42:52;;;;;;;7.90;2.47;;;24.00;93.90;;;;;;6271091;22;20015;-76
2023/08/23 08:45:38;;;;;;;4.05;2.00;;;24.10;93.90;;;;;;6271421;22;20011;-78
2023/08/23 08:48:24;;;;;;;3.95;2.10;;;24.10;93.80;;;;;;6272806;22;20011;-77
2023/08/23 08:51:19;;;;;;;3.33;2.15;;;24.20;93.90;;;;;;6271515;22;20398;-77
2023/08/23 08:54:06;;;;;;;4.20;2.28;;;24.20;93.70;;;;;;6271452;22;20066;-77
2023/08/23 08:56:53;;;;;;;3.33;2.25;;;24.30;93.60;;;;;;6272540;22;20073;-78
2023/08/23 08:59:41;;;;;;;3.55;2.17;;;24.30;93.60;;;;;;6272003;22;20043;-78
2023/08/23 09:02:29;;;;;;;3.38;2.38;;;24.40;93.60;;;;;;6271495;22;20022;-78
2023/08/23 09:05:16;;;;;;;5.03;3.00;;;24.50;93.50;;;;;;6272140;22;20066;-76
2023/08/23 09:08:02;;;;;;;5.70;2.20;;;24.50;93.30;;;;;;6269617;22;20012;-77
2023/08/23 09:10:48;;;;;;;7.30;2.50;;;24.60;93.20;;;;;;6242921;22;20024;-76
2023/08/23 09:13:34;;;;;;;3.70;2.00;;;24.70;93.30;;;;;;6272412;22;20008;-76
2023/08/23 09:16:22;;;;;;;2.95;2.10;;;24.80;93.00;;;;;;6272425;22;20362;-78
2023/08/23 09:19:10;;;;;;;6.57;2.28;;;24.90;92.90;;;;;;6273825;22;20011;-77
2023/08/23 09:21:56;;;;;;;3.33;2.03;;;24.90;92.40;;;;;;6249806;22;20011;-78
2023/08/23 09:24:42;;;;;;;6.07;2.08;;;25.00;92.20;;;;;;6273939;22;20039;-78
2023/08/23 09:27:29;;;;;;;4.70;2.00;;;25.10;92.00;;;;;;6274054;22;20014;-77
2023/08/23 09:30:15;;;;;;;6.10;2.70;;;25.20;92.00;;;;;;6272928;22;20015;-78
2023/08/23 09:33:01;;;;;;;5.43;2.15;;;25.20;91.50;;;;;;6252906;22;20011;-77
2023/08/23 09:35:50;;;;;;;2.63;1.83;;;25.30;91.40;;;;;;6271444;22;20058;-77
2023/08/23 09:38:39;;;;;;;8.63;2.13;;;25.30;91.20;;;;;;6249274;22;20018;-78
2023/08/23 09:41:25;;;;;;;3.55;2.20;;;25.40;91.10;;;;;;6272647;22;20023;-79
2023/08/23 09:44:12;;;;;;;7.03;2.00;;;25.50;91.10;;;;;;6272452;22;20062;-76
2023/08/23 09:47:00;;;;;;;2.67;1.58;;;25.60;90.80;;;;;;6272341;22;20007;-77
2023/08/23 09:49:47;;;;;;;2.67;1.92;;;25.60;90.70;;;;;;6274460;22;20020;-78
2023/08/23 09:52:36;;;;;;;4.75;1.73;;;25.80;90.70;;;;;;6283244;22;20011;-77
2023/08/23 09:55:24;;;;;;;6.15;2.47;;;25.80;90.50;;;;;;6273386;22;20719;-76
2023/08/23 09:58:11;;;;;;;6.03;2.08;;;26.00;90.50;;;;;;6272593;22;20012;-78
2023/08/23 10:00:57;;;;;;;4.43;2.28;;;26.10;90.30;;;;;;6272378;22;20041;-76
2023/08/23 10:03:43;;;;;;;2.95;2.00;;;26.10;90.10;;;;;;6272768;22;20181;-77
2023/08/23 10:06:31;;;;;;;6.82;2.33;;;26.20;90.00;;;;;;6268894;22;20066;-77
2023/08/23 10:09:17;;;;;;;3.17;2.40;;;26.30;90.10;;;;;;6272074;22;20027;-76
2023/08/23 10:12:05;;;;;;;2.85;2.08;;;26.30;89.80;;;;;;6272364;22;20073;-76
2023/08/23 10:14:53;;;;;;;4.07;1.70;;;26.40;89.40;;;;;;6271569;22;20011;-77
2023/08/23 10:17:42;;;;;;;4.07;1.77;;;26.50;89.10;;;;;;6248098;22;20008;-75
2023/08/23 10:20:28;;;;;;;2.83;2.03;;;26.60;88.00;;;;;;6271581;22;20165;-77
2023/08/23 10:23:15;;;;;;;2.92;2.00;;;26.60;87.60;;;;;;6272248;22;20170;-76
2023/08/23 10:26:02;;;;;;;4.13;1.60;;;26.70;87.70;;;;;;6271087;22;20008;-76
2023/08/23 10:28:49;;;;;;;4.55;1.55;;;26.60;86.70;;;;;;6272215;22;20015;-79
2023/08/23 10:31:35;;;;;;;4.40;1.80;;;26.60;86.20;;;;;;6272641;22;20440;-77
2023/08/23 10:34:25;;;;;;;3.08;1.83;;;26.50;85.80;;;;;;6271708;22;20011;-76
2023/08/23 10:37:20;;;;;;;3.50;1.70;;;26.50;85.80;;;;;;6250343;22;20078;-78
2023/08/23 10:40:08;;;;;;;3.75;1.65;;;26.50;85.60;;;;;;6271250;22;20045;-75
2023/08/23 10:42:55;;;;;;;7.55;1.63;;;26.50;85.30;;;;;;6272587;22;20501;-75
2023/08/23 10:46:03;;;;;;;2.97;1.45;;;26.50;84.90;;;;;;6271256;22;20019;-75
2023/08/23 10:48:49;;;;;;;3.58;1.30;;;26.40;84.90;;;;;;6272234;22;20022;-75
2023/08/23 10:51:35;;;;;;;2.38;1.55;;;26.40;83.70;;;;;;6245677;22;20016;-79
2023/08/23 10:54:22;;;;;;;2.95;1.48;;;26.40;83.80;;;;;;6271097;22;20034;-77
2023/08/23 10:57:09;;;;;;;3.45;1.63;;;26.40;83.10;;;;;;6271423;22;20004;-76
2023/08/23 10:59:55;;;;;;;2.17;1.55;;;26.40;82.60;;;;;;6270867;22;20404;-75
2023/08/23 11:02:41;;;;;;;3.88;1.35;;;26.40;82.40;;;;;;6271664;22;20007;-76
2023/08/23 11:05:28;;;;;;;2.00;1.08;;;26.40;82.00;;;;;;6270246;22;20049;-74
2023/08/23 11:08:15;;;;;;;1.95;1.33;;;26.40;81.80;;;;;;6272028;22;20008;-79
2023/08/23 11:11:01;;;;;;;1.58;1.20;;;26.40;82.10;;;;;;6270732;22;20098;-77
2023/08/23 11:13:47;;;;;;;4.82;1.48;;;26.50;81.60;;;;;;6271824;22;20007;-76
2023/08/23 11:16:33;;;;;;;2.58;1.50;;;26.50;81.80;;;;;;6271534;22;20008;-78
2023/08/23 11:19:19;;;;;;;2.42;1.30;;;26.60;81.60;;;;;;6271862;22;20004;-77
2023/08/23 11:22:07;;;;;;;2.17;1.35;;;26.60;81.70;;;;;;6271441;22;20019;-77
2023/08/23 11:24:53;;;;;;;1.42;1.25;;;26.60;82.20;;;;;;6270560;22;20576;-75
2023/08/23 11:27:39;;;;;;;3.28;1.52;;;26.70;82.20;;;;;;6270617;22;20008;-76
2023/08/23 11:30:27;;;;;;;3.78;1.63;;;26.80;82.00;;;;;;6247198;22;20361;-72
2023/08/23 11:33:13;;;;;;;2.47;1.35;;;26.80;81.70;;;;;;6271573;22;20017;-75
2023/08/23 11:36:00;;;;;;;5.05;1.30;;;26.90;81.30;;;;;;6270064;22;20437;-75
2023/08/23 11:38:47;;;;;;;2.38;1.55;;;27.00;81.70;;;;;;6271297;22;20016;-76
2023/08/23 11:41:34;;;;;;;1.90;1.33;;;27.10;81.80;;;;;;6268995;22;20011;-75
2023/08/23 11:44:20;;;;;;;3.97;1.50;;;27.20;80.60;;;;;;6270807;22;20078;-76
2023/08/23 11:47:09;;;;;;;4.60;1.20;;;27.30;80.80;;;;;;6272226;22;20016;-76
2023/08/23 11:49:56;;;;;;;1.77;1.33;;;27.30;79.50;;;;;;6270903;22;20024;-80
2023/08/23 11:52:42;;;;;;;2.83;1.17;;;27.40;78.20;;;;;;6269195;22;20430;-74
2023/08/23 11:55:28;;;;;;;2.05;1.20;;;27.40;77.40;;;;;;6270530;22;20094;-77
2023/08/23 11:58:14;;;;;;;3.80;1.65;;;27.40;77.40;;;;;;6247225;22;20047;-70
2023/08/23 12:01:00;;;;;;;1.48;1.20;;;27.40;77.00;;;;;;6270359;22;20012;-70
2023/08/23 12:03:46;;;;;;;2.10;1.23;;;27.40;77.00;;;;;;6270800;22;20425;-70
2023/08/23 12:06:33;;;;;;;2.22;1.27;;;27.50;76.90;;;;;;6270179;22;20017;-71
2023/08/23 12:09:22;;;;;;;0.90;0.88;;;27.40;76.90;;;;;;6268864;22;20341;-71
2023/08/23 12:12:08;;;;;;;2.53;1.08;;;27.40;75.90;;;;;;6269327;22;20437;-70
2023/08/23 12:14:54;;;;;;;2.53;1.10;;;27.40;75.60;;;;;;6269946;22;20353;-78
2023/08/23 12:17:40;;;;;;;3.17;1.15;;;27.40;75.70;;;;;;6271786;22;20389;-77
2023/08/23 12:20:26;;;;;;;3.28;1.33;;;27.40;74.90;;;;;;6269022;22;20016;-76
2023/08/23 12:23:12;;;;;;;2.95;1.10;;;27.50;75.20;;;;;;6271479;22;20008;-73
2023/08/23 12:25:58;;;;;;;1.98;1.25;;;27.50;76.20;;;;;;6269829;22;20091;-76
2023/08/23 12:28:44;;;;;;;1.63;1.20;;;27.50;75.60;;;;;;6270809;22;20077;-77
2023/08/23 12:31:30;;;;;;;1.63;1.38;;;27.50;75.30;;;;;;6269944;22;20433;-75
2023/08/23 12:34:16;;;;;;;2.65;1.48;;;27.50;74.10;;;;;;6270894;22;20327;-77
2023/08/23 12:37:02;;;;;;;2.67;1.20;;;27.60;74.10;;;;;;6248038;22;20434;-76
2023/08/23 12:39:49;;;;;;;2.85;1.63;;;27.60;74.60;;;;;;6270301;22;20090;-77
2023/08/23 12:42:36;;;;;;;2.50;1.30;;;27.50;74.40;;;;;;6269836;22;20087;-76
2023/08/23 12:45:21;;;;;;;4.50;1.83;;;27.60;74.50;;;;;;6269539;22;20450;-77
2023/08/23 12:48:09;;;;;;;3.22;1.90;;;27.60;74.50;;;;;;6271443;22;20475;-74
2023/08/23 12:50:55;;;;;;;2.58;1.50;;;27.60;74.20;;;;;;6270443;22;20149;-76
2023/08/23 12:53:41;;;;;;;1.65;1.23;;;27.60;74.40;;;;;;6270950;22;20052;-78
2023/08/23 12:56:27;;;;;;;3.95;1.60;;;27.70;74.10;;;;;;6269886;22;20020;-75
2023/08/23 12:59:12;;;;;;;2.40;1.48;;;27.70;74.50;;;;;;6267665;22;20007;-75
2023/08/23 13:01:59;;;;;;;1.30;1.20;;;27.70;74.10;;;;;;6272598;22;20008;-77
2023/08/23 13:04:45;;;;;;;3.65;1.40;;;27.80;73.20;;;;;;6272754;22;20030;-79
2023/08/23 13:07:31;;;;;;;2.30;1.60;;;27.80;72.50;;;;;;6272701;22;20015;-72
2023/08/23 13:10:17;;;;;;;3.38;1.40;;;27.80;72.50;;;;;;6273400;22;20469;-79
2023/08/23 13:13:03;;;;;;;2.75;1.58;;;27.90;72.60;;;;;;6276180;22;20098;-73
2023/08/23 13:15:49;;;;;;;1.50;1.40;;;28.00;72.40;;;;;;6253437;22;20022;-75
2023/08/23 13:18:35;;;;;;;2.00;1.33;;;28.00;73.00;;;;;;6277547;22;20007;-75
2023/08/23 13:21:21;;;;;;;4.07;1.40;;;28.10;72.50;;;;;;6280854;22;20047;-76
2023/08/23 13:24:21;;;;;;;1.00;0.93;;;28.20;72.20;;;;;;6280936;22;20043;-76
2023/08/23 13:27:07;;;;;;;1.92;1.42;;;28.30;72.00;;;;;;6274529;22;20014;-76
2023/08/23 13:29:53;;;;;;;2.13;1.38;;;28.30;71.70;;;;;;6272390;22;20031;-76
2023/08/23 13:32:38;;;;;;;1.77;1.52;;;28.40;71.20;;;;;;6271478;22;20008;-76
2023/08/23 13:35:24;;;;;;;3.80;1.63;;;28.50;71.10;;;;;;6249266;22;20349;-76
2023/08/23 13:38:12;;;;;;;2.33;1.50;;;28.50;70.60;;;;;;6272789;22;20446;-75
2023/08/23 13:40:58;;;;;;;1.67;1.10;;;28.50;70.70;;;;;;6248945;22;20015;-78
2023/08/23 13:43:44;;;;;;;2.15;1.25;;;28.50;70.50;;;;;;6249492;22;20008;-77
2023/08/23 13:46:30;;;;;;;2.40;1.20;;;28.50;70.30;;;;;;6270676;22;20011;-76
2023/08/23 13:49:17;;;;;;;1.70;1.30;;;28.50;69.70;;;;;;6273097;22;20011;-76
2023/08/23 13:52:03;;;;;;;5.05;1.38;;;28.50;69.00;;;;;;6272638;22;20015;-75
2023/08/23 13:54:50;;;;;;;2.20;1.50;;;28.60;69.20;;;;;;6269944;22;20046;-76
2023/08/23 13:57:37;;;;;;;3.28;1.30;;;28.70;69.20;;;;;;6272857;22;20023;-76
2023/08/23 14:00:22;;;;;;;2.08;1.50;;;28.80;68.80;;;;;;6272392;22;20008;-77
2023/08/23 14:03:08;;;;;;;1.83;1.27;;;28.90;68.90;;;;;;6273170;22;20094;-78
2023/08/23 14:05:58;;;;;;;1.65;1.10;;;28.90;68.80;;;;;;6272751;22;20020;-77
2023/08/23 14:08:44;;;;;;;1.88;1.52;;;29.00;68.40;;;;;;6272453;22;20031;-76
2023/08/23 14:11:34;;;;;;;2.72;1.40;;;28.90;68.90;;;;;;6249527;22;20027;-77
2023/08/23 14:14:20;;;;;;;2.95;1.30;;;28.90;68.40;;;;;;6271170;22;20141;-78
2023/08/23 14:17:06;;;;;;;1.70;1.25;;;29.00;68.40;;;;;;6272959;22;20008;-78
2023/08/23 14:19:52;;;;;;;1.10;0.95;;;29.10;67.50;;;;;;6272683;22;20004;-78
2023/08/23 14:22:38;;;;;;;1.73;1.17;;;29.10;66.70;;;;;;6272258;22;20011;-76
2023/08/23 14:25:24;;;;;;;1.35;1.00;;;29.10;66.10;;;;;;6271121;22;20039;-78
2023/08/23 14:28:11;;;;;;;1.90;1.20;;;29.10;66.00;;;;;;6272524;22;20092;-77
2023/08/23 14:30:57;;;;;;;1.58;1.23;;;29.10;65.40;;;;;;6270912;22;20015;-78
2023/08/23 14:33:44;;;;;;;3.78;1.60;;;29.20;65.20;;;;;;6272233;22;20015;-79
2023/08/23 14:36:30;;;;;;;2.45;1.15;;;29.20;65.30;;;;;;6271376;22;20449;-78
2023/08/23 14:39:16;;;;;;;5.57;1.48;;;29.30;65.60;;;;;;6250819;22;20505;-78